createdAt,value
2016-08-08T00:00:50.308Z,961.31
2016-08-08T00:01:50.336Z,961.29
2016-08-08T00:02:50.361Z,961.28
2016-08-08T00:03:50.387Z,961.29
2016-08-08T00:04:50.465Z,961.27
2016-08-08T00:05:50.440Z,961.25
2016-08-08T00:06:50.467Z,961.21
2016-08-08T00:07:50.493Z,961.25
2016-08-08T00:08:50.519Z,961.22
2016-08-08T00:09:50.547Z,961.2
2016-08-08T00:10:50.575Z,961.21
2016-08-08T00:11:50.600Z,961.18
2016-08-08T00:12:50.648Z,961.19
2016-08-08T00:13:50.652Z,961.22
2016-08-08T00:14:50.678Z,961.16
2016-08-08T00:15:50.705Z,961.16
2016-08-08T00:16:50.731Z,961.17
2016-08-08T00:17:50.759Z,961.17
2016-08-08T00:18:50.794Z,961.15
2016-08-08T00:19:50.810Z,961.17
2016-08-08T00:20:50.839Z,961.12
2016-08-08T00:21:50.864Z,961.14
2016-08-08T00:22:50.895Z,961.13
2016-08-08T00:23:50.917Z,961.15
2016-08-08T00:24:50.948Z,961.13
2016-08-08T00:25:50.970Z,961.1
2016-08-08T00:26:50.996Z,961.11
2016-08-08T00:27:51.022Z,961.09
2016-08-08T00:28:51.048Z,961.11
2016-08-08T00:29:51.075Z,961.09
2016-08-08T00:30:51.102Z,961.09
2016-08-08T00:31:51.128Z,961.13
2016-08-08T00:32:51.155Z,961.08
2016-08-08T00:33:51.181Z,961.07
2016-08-08T00:34:51.207Z,961.11
2016-08-08T00:35:51.233Z,961.08
2016-08-08T00:36:51.260Z,961.06
2016-08-08T00:37:51.286Z,961.04
2016-08-08T00:38:51.312Z,961.08
2016-08-08T00:39:51.340Z,961.04
2016-08-08T00:40:51.365Z,961.01
2016-08-08T00:41:51.391Z,961
2016-08-08T00:42:51.418Z,961.01
2016-08-08T00:43:51.444Z,960.99
2016-08-08T00:44:51.470Z,961.01
2016-08-08T00:45:51.497Z,961
2016-08-08T00:46:51.523Z,961
2016-08-08T00:47:51.551Z,961.01
2016-08-08T00:48:51.575Z,960.99
2016-08-08T00:49:51.602Z,960.95
2016-08-08T00:50:51.629Z,960.97
2016-08-08T00:51:51.656Z,960.92
2016-08-08T00:52:51.682Z,960.97
2016-08-08T00:53:51.708Z,960.96
2016-08-08T00:54:51.733Z,960.92
2016-08-08T00:55:51.763Z,960.95
2016-08-08T00:56:51.785Z,960.91
2016-08-08T00:57:51.813Z,960.9
2016-08-08T00:58:51.841Z,960.89
2016-08-08T00:59:51.872Z,960.86
2016-08-08T01:00:51.892Z,960.86
2016-08-08T01:01:51.919Z,960.84
2016-08-08T01:02:51.944Z,960.88
2016-08-08T01:03:51.970Z,960.88
2016-08-08T01:04:51.999Z,960.88
2016-08-08T01:05:52.024Z,960.86
2016-08-08T01:06:52.050Z,960.9
2016-08-08T01:07:52.077Z,960.89
2016-08-08T01:08:52.103Z,960.85
2016-08-08T01:09:52.129Z,960.86
2016-08-08T01:10:52.154Z,960.82
2016-08-08T01:11:52.181Z,960.84
2016-08-08T01:12:52.209Z,960.85
2016-08-08T01:13:52.234Z,960.84
2016-08-08T01:14:52.261Z,960.85
2016-08-08T01:15:52.291Z,960.83
2016-08-08T01:16:52.314Z,960.84
2016-08-08T01:17:52.340Z,960.8
2016-08-08T01:18:52.365Z,960.78
2016-08-08T01:19:52.392Z,960.75
2016-08-08T01:20:52.419Z,960.75
2016-08-08T01:21:52.444Z,960.74
2016-08-08T01:22:52.470Z,960.74
2016-08-08T01:23:52.507Z,960.72
2016-08-08T01:24:52.523Z,960.78
2016-08-08T01:25:52.548Z,960.75
2016-08-08T01:27:52.602Z,960.74
2016-08-08T01:28:52.627Z,960.74
2016-08-08T01:29:52.652Z,960.71
2016-08-08T01:30:52.679Z,960.66
2016-08-08T01:31:52.723Z,960.67
2016-08-08T01:32:52.730Z,960.64
2016-08-08T01:33:52.758Z,960.63
2016-08-08T01:34:52.784Z,960.62
2016-08-08T01:35:52.812Z,960.63
2016-08-08T01:36:52.836Z,960.63
2016-08-08T01:37:52.862Z,960.6
2016-08-08T01:38:52.889Z,960.59
2016-08-08T01:39:52.916Z,960.61
2016-08-08T01:40:52.942Z,960.6
2016-08-08T01:42:52.995Z,960.59
2016-08-08T01:43:53.020Z,960.56
2016-08-08T01:44:53.046Z,960.57
2016-08-08T01:45:53.074Z,960.51
2016-08-08T01:46:53.100Z,960.52
2016-08-08T01:47:53.126Z,960.52
2016-08-08T01:48:53.151Z,960.52
2016-08-08T01:49:53.190Z,960.49
2016-08-08T01:50:53.207Z,960.51
2016-08-08T01:51:53.231Z,960.51
2016-08-08T01:52:53.258Z,960.49
2016-08-08T01:53:53.286Z,960.46
2016-08-08T01:54:53.314Z,960.46
2016-08-08T01:55:53.337Z,960.44
2016-08-08T01:57:53.391Z,960.45
2016-08-08T01:58:53.416Z,960.41
2016-08-08T01:59:53.445Z,960.41
2016-08-08T02:00:53.470Z,960.4
2016-08-08T02:01:53.501Z,960.37
2016-08-08T02:02:53.523Z,960.34
2016-08-08T02:03:53.551Z,960.35
2016-08-08T02:04:53.576Z,960.32
2016-08-08T02:05:53.602Z,960.28
2016-08-08T02:06:53.629Z,960.32
2016-08-08T02:07:53.654Z,960.3
2016-08-08T02:08:53.682Z,960.28
2016-08-08T02:09:53.708Z,960.3
2016-08-08T02:10:53.735Z,960.27
2016-08-08T02:12:53.786Z,960.28
2016-08-08T02:13:53.812Z,960.22
2016-08-08T02:14:53.838Z,960.25
2016-08-08T02:15:53.865Z,960.25
2016-08-08T02:16:53.896Z,960.23
2016-08-08T02:17:53.918Z,960.24
2016-08-08T02:18:53.944Z,960.23
2016-08-08T02:19:53.981Z,960.26
2016-08-08T02:20:53.998Z,960.23
2016-08-08T02:21:54.024Z,960.21
2016-08-08T02:22:54.050Z,960.22
2016-08-08T02:23:54.075Z,960.17
2016-08-08T02:24:54.102Z,960.21
2016-08-08T02:25:54.129Z,960.19
2016-08-08T02:26:54.156Z,960.14
2016-08-08T02:27:54.183Z,960.13
2016-08-08T02:28:54.207Z,960.11
2016-08-08T02:29:54.234Z,960.14
2016-08-08T02:30:54.262Z,960.14
2016-08-08T02:31:54.291Z,960.11
2016-08-08T02:32:54.312Z,960.1
2016-08-08T02:33:54.340Z,960.08
2016-08-08T02:34:54.364Z,960.11
2016-08-08T02:35:54.401Z,960.09
2016-08-08T02:36:54.418Z,960.03
2016-08-08T02:37:54.444Z,960.03
2016-08-08T02:38:54.470Z,960.05
2016-08-08T02:39:54.496Z,960
2016-08-08T02:40:54.522Z,960.02
2016-08-08T02:41:54.550Z,959.99
2016-08-08T02:42:54.575Z,960
2016-08-08T02:43:54.616Z,959.97
2016-08-08T02:44:54.628Z,960.01
2016-08-08T02:45:54.653Z,959.96
2016-08-08T02:46:54.681Z,960
2016-08-08T02:47:54.706Z,959.97
2016-08-08T02:48:54.733Z,959.93
2016-08-08T02:49:54.757Z,959.93
2016-08-08T02:50:54.783Z,959.96
2016-08-08T02:51:54.812Z,959.9
2016-08-08T02:52:54.844Z,959.89
2016-08-08T02:53:54.862Z,959.89
2016-08-08T02:54:54.889Z,959.86
2016-08-08T02:55:54.916Z,959.86
2016-08-08T02:56:54.939Z,959.85
2016-08-08T02:57:54.965Z,959.87
2016-08-08T02:58:54.992Z,959.89
2016-08-08T02:59:55.019Z,959.9
2016-08-08T03:01:55.069Z,959.95
2016-08-08T03:02:55.100Z,959.95
2016-08-08T03:03:55.123Z,959.97
2016-08-08T03:04:55.147Z,959.97
2016-08-08T03:05:55.173Z,959.9
2016-08-08T03:06:55.200Z,959.92
2016-08-08T03:07:55.228Z,959.95
2016-08-08T03:08:55.252Z,959.95
2016-08-08T03:09:55.278Z,959.94
2016-08-08T03:10:55.304Z,959.94
2016-08-08T03:11:55.330Z,959.95
2016-08-08T03:12:55.358Z,959.93
2016-08-08T03:13:55.382Z,959.99
2016-08-08T03:14:55.409Z,959.97
2016-08-08T03:15:55.434Z,959.97
2016-08-08T03:16:55.460Z,960
2016-08-08T03:17:55.486Z,959.99
2016-08-08T03:18:55.513Z,960
2016-08-08T03:19:55.538Z,959.98
2016-08-08T03:20:55.564Z,959.94
2016-08-08T03:21:55.590Z,959.99
2016-08-08T03:22:55.620Z,959.98
2016-08-08T03:23:55.642Z,959.99
2016-08-08T03:24:55.668Z,959.99
2016-08-08T03:25:55.694Z,960.02
2016-08-08T03:26:55.723Z,960.04
2016-08-08T03:27:55.746Z,960.05
2016-08-08T03:28:55.774Z,960.08
2016-08-08T03:29:55.800Z,960.04
2016-08-08T03:30:55.825Z,960.06
2016-08-08T03:31:55.850Z,960.06
2016-08-08T03:32:55.875Z,960.06
2016-08-08T03:33:55.901Z,960.09
2016-08-08T03:34:55.927Z,960.04
2016-08-08T03:35:55.952Z,960.06
2016-08-08T03:36:55.977Z,960.07
2016-08-08T03:37:56.023Z,960.05
2016-08-08T03:38:56.041Z,960.04
2016-08-08T03:39:56.056Z,960.04
2016-08-08T03:40:56.080Z,960.07
2016-08-08T03:41:56.106Z,960.1
2016-08-08T03:42:56.134Z,960.03
2016-08-08T03:43:56.159Z,960.02
2016-08-08T03:44:56.184Z,960.06
2016-08-08T03:45:56.211Z,959.99
2016-08-08T03:46:56.259Z,960.03
2016-08-08T03:47:56.262Z,960.02
2016-08-08T03:48:56.287Z,960.03
2016-08-08T03:49:56.313Z,960.03
2016-08-08T03:50:56.337Z,960.04
2016-08-08T03:51:56.366Z,960.04
2016-08-08T03:52:56.389Z,960.02
2016-08-08T03:53:56.416Z,960.04
2016-08-08T03:54:56.441Z,960.06
2016-08-08T03:55:56.467Z,960.05
2016-08-08T03:56:56.493Z,960.07
2016-08-08T03:57:56.517Z,960.07
2016-08-08T03:58:56.542Z,960.09
2016-08-08T03:59:56.570Z,960.06
2016-08-08T04:00:56.594Z,960.09
2016-08-08T04:01:56.622Z,960.11
2016-08-08T04:02:56.645Z,960.09
2016-08-08T04:03:56.671Z,960.11
2016-08-08T04:04:56.749Z,960.1
2016-08-08T04:05:56.727Z,960.1
2016-08-08T04:06:56.748Z,960.09
2016-08-08T04:07:56.775Z,960.1
2016-08-08T04:08:56.800Z,960.15
2016-08-08T04:09:56.830Z,960.11
2016-08-08T04:10:56.852Z,960.11
2016-08-08T04:11:56.878Z,960.08
2016-08-08T04:12:56.903Z,960.05
2016-08-08T04:13:56.929Z,960.07
2016-08-08T04:14:56.955Z,960.07
2016-08-08T04:15:56.980Z,960.02
2016-08-08T04:16:57.008Z,960
2016-08-08T04:17:57.030Z,960
2016-08-08T04:18:57.065Z,960.02
2016-08-08T04:19:57.083Z,960.04
2016-08-08T04:20:57.107Z,960
2016-08-08T04:21:57.131Z,960.03
2016-08-08T04:22:57.172Z,960.03
2016-08-08T04:23:57.184Z,960.01
2016-08-08T04:24:57.208Z,960.02
2016-08-08T04:25:57.235Z,960.06
2016-08-08T04:26:57.282Z,960.06
2016-08-08T04:27:57.286Z,960.04
2016-08-08T04:28:57.311Z,960.08
2016-08-08T04:29:57.337Z,960.07
2016-08-08T04:30:57.363Z,960.07
2016-08-08T04:31:57.394Z,960.1
2016-08-08T04:32:57.413Z,960.1
2016-08-08T04:33:57.439Z,960.08
2016-08-08T04:34:57.466Z,960.11
2016-08-08T04:35:57.494Z,960.08
2016-08-08T04:36:57.515Z,960.1
2016-08-08T04:37:57.541Z,960.08
2016-08-08T04:38:57.567Z,960.08
2016-08-08T04:39:57.591Z,960.06
2016-08-08T04:40:57.616Z,960.07
2016-08-08T04:41:57.649Z,960.07
2016-08-08T04:42:57.668Z,960.07
2016-08-08T04:43:57.693Z,960.08
2016-08-08T04:44:57.719Z,960.09
2016-08-08T04:45:57.744Z,960.09
2016-08-08T04:46:57.770Z,960.06
2016-08-08T04:47:57.796Z,960.09
2016-08-08T04:48:57.820Z,960.11
2016-08-08T04:49:57.847Z,960.12
2016-08-08T04:50:57.872Z,960.09
2016-08-08T04:51:57.896Z,960.11
2016-08-08T04:52:57.922Z,960.12
2016-08-08T04:53:57.949Z,960.13
2016-08-08T04:54:57.973Z,960.12
2016-08-08T04:55:58.000Z,960.14
2016-08-08T04:56:58.025Z,960.08
2016-08-08T04:57:58.058Z,960.12
2016-08-08T04:58:58.075Z,960.11
2016-08-08T04:59:58.101Z,960.13
2016-08-08T05:00:58.127Z,960.11
2016-08-08T05:01:58.152Z,960.14
2016-08-08T05:02:58.178Z,960.1
2016-08-08T05:03:58.203Z,960.09
2016-08-08T05:04:58.279Z,960.08
2016-08-08T05:05:58.274Z,960.13
2016-08-08T05:06:58.280Z,960.11
2016-08-08T05:07:58.307Z,960.1
2016-08-08T05:08:58.332Z,960.07
2016-08-08T05:09:58.358Z,960.1
2016-08-08T05:10:58.383Z,960.06
2016-08-08T05:11:58.409Z,960.11
2016-08-08T05:12:58.458Z,960.07
2016-08-08T05:13:58.462Z,960.05
2016-08-08T05:14:58.486Z,960.02
2016-08-08T05:15:58.511Z,960.05
2016-08-08T05:16:58.537Z,960.03
2016-08-08T05:17:58.563Z,960.02
2016-08-08T05:18:58.590Z,960.02
2016-08-08T05:19:58.614Z,960.04
2016-08-08T05:20:58.641Z,960.04
2016-08-08T05:21:58.666Z,960.02
2016-08-08T05:22:58.691Z,960.03
2016-08-08T05:23:58.719Z,960.04
2016-08-08T05:24:58.750Z,960.03
2016-08-08T05:25:58.769Z,960.04
2016-08-08T05:26:58.793Z,960.08
2016-08-08T05:27:58.820Z,960.08
2016-08-08T05:28:58.845Z,960.03
2016-08-08T05:29:58.873Z,960.06
2016-08-08T05:30:58.896Z,960.06
2016-08-08T05:31:58.922Z,960.07
2016-08-08T05:32:58.949Z,960.03
2016-08-08T05:33:58.973Z,960.06
2016-08-08T05:34:58.999Z,960.06
2016-08-08T05:35:59.026Z,960.05
2016-08-08T05:36:59.053Z,960.04
2016-08-08T05:37:59.084Z,960.01
2016-08-08T05:38:59.104Z,959.98
2016-08-08T05:39:59.129Z,959.98
2016-08-08T05:40:59.155Z,959.96
2016-08-08T05:41:59.180Z,959.92
2016-08-08T05:42:59.205Z,959.94
2016-08-08T05:43:59.232Z,959.95
2016-08-08T05:44:59.257Z,959.93
2016-08-08T05:45:59.305Z,959.96
2016-08-08T05:46:59.310Z,959.92
2016-08-08T05:47:59.335Z,959.93
2016-08-08T05:48:59.360Z,959.91
2016-08-08T05:49:59.388Z,959.93
2016-08-08T05:50:59.414Z,959.91
2016-08-08T05:51:59.441Z,959.9
2016-08-08T05:52:59.466Z,959.91
2016-08-08T05:53:59.493Z,959.91
2016-08-08T05:54:59.527Z,959.91
2016-08-08T05:55:59.542Z,959.87
2016-08-08T05:56:59.569Z,959.89
2016-08-08T05:57:59.595Z,959.92
2016-08-08T05:58:59.622Z,959.9
2016-08-08T05:59:59.647Z,959.9
2016-08-08T06:00:59.673Z,959.87
2016-08-08T06:01:59.702Z,959.89
2016-08-08T06:02:59.733Z,959.86
2016-08-08T06:03:59.752Z,959.88
2016-08-08T06:04:59.779Z,959.85
2016-08-08T06:05:59.806Z,959.88
2016-08-08T06:06:59.832Z,959.84
2016-08-08T06:07:59.857Z,959.85
2016-08-08T06:08:59.884Z,959.88
2016-08-08T06:09:59.910Z,959.89
2016-08-08T06:10:59.935Z,959.93
2016-08-08T06:11:59.964Z,959.93
2016-08-08T06:12:59.990Z,959.91
2016-08-08T06:14:00.019Z,959.89
2016-08-08T06:15:00.041Z,959.92
2016-08-08T06:16:00.068Z,959.88
2016-08-08T06:17:00.095Z,959.87
2016-08-08T06:18:00.121Z,959.87
2016-08-08T06:19:00.148Z,959.87
2016-08-08T06:20:00.174Z,959.92
2016-08-08T06:21:00.202Z,959.91
2016-08-08T06:22:00.226Z,959.91
2016-08-08T06:23:00.253Z,959.9
2016-08-08T06:24:00.280Z,959.92
2016-08-08T06:25:00.307Z,959.9
2016-08-08T06:26:00.334Z,959.94
2016-08-08T06:27:00.359Z,959.91
2016-08-08T06:28:00.387Z,959.93
2016-08-08T06:29:00.413Z,959.97
2016-08-08T06:30:00.440Z,959.97
2016-08-08T06:31:00.467Z,959.94
2016-08-08T06:32:00.493Z,959.94
2016-08-08T06:33:00.522Z,959.94
2016-08-08T06:34:00.549Z,959.93
2016-08-08T06:35:00.574Z,959.96
2016-08-08T06:36:00.601Z,959.9
2016-08-08T06:37:00.628Z,959.93
2016-08-08T06:38:00.656Z,959.92
2016-08-08T06:39:00.682Z,959.9
2016-08-08T06:40:00.708Z,959.88
2016-08-08T06:41:00.737Z,959.9
2016-08-08T06:42:00.764Z,959.89
2016-08-08T06:44:00.817Z,959.9
2016-08-08T06:45:00.844Z,959.88
2016-08-08T06:46:00.871Z,959.85
2016-08-08T06:47:00.910Z,959.84
2016-08-08T06:48:00.926Z,959.88
2016-08-08T06:49:00.958Z,959.84
2016-08-08T06:50:00.981Z,959.83
2016-08-08T06:51:01.007Z,959.8
2016-08-08T06:52:01.035Z,959.8
2016-08-08T06:53:01.062Z,959.79
2016-08-08T06:54:01.091Z,959.75
2016-08-08T06:55:01.116Z,959.75
2016-08-08T06:56:01.145Z,959.79
2016-08-08T06:57:01.171Z,959.81
2016-08-08T06:59:01.227Z,959.83
2016-08-08T07:00:01.255Z,959.8
2016-08-08T07:01:01.281Z,959.79
2016-08-08T07:02:01.309Z,959.78
2016-08-08T07:03:01.336Z,959.79
2016-08-08T07:04:01.364Z,959.81
2016-08-08T07:05:01.396Z,959.8
2016-08-08T07:06:01.418Z,959.79
2016-08-08T07:07:01.447Z,959.79
2016-08-08T07:08:01.476Z,959.78
2016-08-08T07:09:01.509Z,959.78
2016-08-08T07:10:01.530Z,959.78
2016-08-08T07:11:01.558Z,959.8
2016-08-08T07:12:01.588Z,959.73
2016-08-08T07:14:01.641Z,959.71
2016-08-08T07:15:01.670Z,959.67
2016-08-08T07:16:01.698Z,959.67
2016-08-08T07:17:01.724Z,959.65
2016-08-08T07:18:01.753Z,959.66
2016-08-08T07:19:01.781Z,959.67
2016-08-08T07:20:01.809Z,959.72
2016-08-08T07:21:01.850Z,959.71
2016-08-08T07:22:01.868Z,959.7
2016-08-08T07:23:01.898Z,959.71
2016-08-08T07:24:01.923Z,959.72
2016-08-08T07:25:01.951Z,959.73
2016-08-08T07:26:01.980Z,959.7
2016-08-08T07:27:02.008Z,959.74
2016-08-08T07:28:02.035Z,959.79
2016-08-08T07:29:02.064Z,959.73
2016-08-08T07:30:02.095Z,959.75
2016-08-08T07:31:02.120Z,959.75
2016-08-08T07:32:02.149Z,959.77
2016-08-08T07:33:02.178Z,959.81
2016-08-08T07:34:02.207Z,959.83
2016-08-08T07:35:02.234Z,959.86
2016-08-08T07:36:02.263Z,959.88
2016-08-08T07:37:02.292Z,959.82
2016-08-08T07:38:02.337Z,959.86
2016-08-08T07:39:02.350Z,959.78
2016-08-08T07:40:02.378Z,959.75
2016-08-08T07:41:02.406Z,959.79
2016-08-08T07:42:02.434Z,959.76
2016-08-08T07:43:02.464Z,959.77
2016-08-08T07:44:02.494Z,959.76
2016-08-08T07:45:02.522Z,959.75
2016-08-08T07:46:02.555Z,959.79
2016-08-08T07:47:02.579Z,959.78
2016-08-08T07:48:02.608Z,959.74
2016-08-08T07:49:02.636Z,959.7
2016-08-08T07:50:02.665Z,959.68
2016-08-08T07:51:02.695Z,959.68
2016-08-08T07:52:02.725Z,959.7
2016-08-08T07:53:02.752Z,959.67
2016-08-08T07:54:02.786Z,959.68
2016-08-08T07:55:02.811Z,959.68
2016-08-08T07:56:02.840Z,959.69
2016-08-08T07:57:02.867Z,959.69
2016-08-08T07:58:02.896Z,959.65
2016-08-08T07:59:02.932Z,959.69
2016-08-08T08:00:02.955Z,959.66
2016-08-08T08:01:02.986Z,959.64
2016-08-08T08:02:03.013Z,959.66
2016-08-08T08:03:03.044Z,959.62
2016-08-08T08:04:03.072Z,959.61
2016-08-08T08:05:03.101Z,959.59
2016-08-08T08:06:03.132Z,959.64
2016-08-08T08:07:03.161Z,959.59
2016-08-08T08:08:03.188Z,959.57
2016-08-08T08:09:03.219Z,959.59
2016-08-08T08:10:03.265Z,959.58
2016-08-08T08:11:03.278Z,959.59
2016-08-08T08:12:03.309Z,959.6
2016-08-08T08:13:03.340Z,959.6
2016-08-08T08:14:03.369Z,959.62
2016-08-08T08:15:03.398Z,959.63
2016-08-08T08:16:03.428Z,959.62
2016-08-08T08:17:03.460Z,959.6
2016-08-08T08:18:03.492Z,959.69
2016-08-08T08:19:03.521Z,959.64
2016-08-08T08:20:03.550Z,959.66
2016-08-08T08:21:03.580Z,959.64
2016-08-08T08:22:03.618Z,959.68
2016-08-08T08:23:03.640Z,959.69
2016-08-08T08:24:03.672Z,959.68
2016-08-08T08:25:03.702Z,959.67
2016-08-08T08:26:03.731Z,959.69
2016-08-08T08:27:03.761Z,959.7
2016-08-08T08:28:03.792Z,959.69
2016-08-08T08:29:03.822Z,959.66
2016-08-08T08:30:03.852Z,959.64
2016-08-08T08:31:03.882Z,959.68
2016-08-08T08:32:03.913Z,959.64
2016-08-08T08:33:03.944Z,959.65
2016-08-08T08:34:03.974Z,959.63
2016-08-08T08:35:04.008Z,959.65
2016-08-08T08:36:04.036Z,959.67
2016-08-08T08:37:04.066Z,959.64
2016-08-08T08:38:04.096Z,959.58
2016-08-08T08:39:04.124Z,959.62
2016-08-08T08:40:04.156Z,959.64
2016-08-08T08:41:04.186Z,959.64
2016-08-08T08:42:04.216Z,959.62
2016-08-08T08:43:04.248Z,959.58
2016-08-08T08:44:04.278Z,959.6
2016-08-08T08:45:04.309Z,959.62
2016-08-08T08:46:04.339Z,959.54
2016-08-08T08:47:04.369Z,959.55
2016-08-08T08:48:04.401Z,959.58
2016-08-08T08:49:04.430Z,959.55
2016-08-08T08:50:04.460Z,959.55
2016-08-08T08:51:04.502Z,959.55
2016-08-08T08:52:04.524Z,959.53
2016-08-08T08:53:04.553Z,959.53
2016-08-08T08:54:04.583Z,959.49
2016-08-08T08:55:04.613Z,959.48
2016-08-08T08:56:04.645Z,959.49
2016-08-08T08:57:04.675Z,959.45
2016-08-08T08:58:04.706Z,959.45
2016-08-08T08:59:04.738Z,959.4
2016-08-08T09:00:04.768Z,959.44
2016-08-08T09:01:04.798Z,959.41
2016-08-08T09:02:04.829Z,959.42
2016-08-08T09:03:04.859Z,959.4
2016-08-08T09:04:04.892Z,959.43
2016-08-08T09:05:04.922Z,959.42
2016-08-08T09:06:04.952Z,959.35
2016-08-08T09:07:04.982Z,959.39
2016-08-08T09:08:05.028Z,959.38
2016-08-08T09:09:05.044Z,959.37
2016-08-08T09:10:05.075Z,959.36
2016-08-08T09:11:05.107Z,959.37
2016-08-08T09:12:05.137Z,959.36
2016-08-08T09:13:05.169Z,959.35
2016-08-08T09:14:05.199Z,959.34
2016-08-08T09:15:05.230Z,959.38
2016-08-08T09:16:05.261Z,959.38
2016-08-08T09:17:05.292Z,959.39
2016-08-08T09:18:05.322Z,959.36
2016-08-08T09:19:05.354Z,959.38
2016-08-08T09:20:05.386Z,959.33
2016-08-08T09:21:05.416Z,959.26
2016-08-08T09:22:05.447Z,959.27
2016-08-08T09:23:05.478Z,959.22
2016-08-08T09:24:05.523Z,959.21
2016-08-08T09:25:05.541Z,959.25
2016-08-08T09:26:05.575Z,959.23
2016-08-08T09:27:05.603Z,959.18
2016-08-08T09:28:05.634Z,959.19
2016-08-08T09:29:05.664Z,959.15
2016-08-08T09:30:05.696Z,959.18
2016-08-08T09:31:05.730Z,959.17
2016-08-08T09:32:05.760Z,959.17
2016-08-08T09:33:05.792Z,959.14
2016-08-08T09:34:05.822Z,959.12
2016-08-08T09:35:05.862Z,959.1
2016-08-08T09:36:05.883Z,959.08
2016-08-08T09:37:05.916Z,959.09
2016-08-08T09:38:05.946Z,959.09
2016-08-08T09:39:05.983Z,959.08
2016-08-08T09:40:06.009Z,959.04
2016-08-08T09:41:06.049Z,959.02
2016-08-08T09:42:06.074Z,959.01
2016-08-08T09:43:06.109Z,958.99
2016-08-08T09:44:06.135Z,959.05
2016-08-08T09:45:06.167Z,959.05
2016-08-08T09:46:06.200Z,959.09
2016-08-08T09:47:06.232Z,959.07
2016-08-08T09:48:06.263Z,959.07
2016-08-08T09:49:06.294Z,959.08
2016-08-08T09:50:06.326Z,959.04
2016-08-08T09:51:06.358Z,959.04
2016-08-08T09:52:06.389Z,959.04
2016-08-08T09:53:06.424Z,958.99
2016-08-08T09:54:06.452Z,958.94
2016-08-08T09:55:06.484Z,958.96
2016-08-08T09:56:06.518Z,958.93
2016-08-08T09:57:06.547Z,959
2016-08-08T09:58:06.579Z,959.01
2016-08-08T09:59:06.611Z,959.03
2016-08-08T10:00:06.643Z,958.99
2016-08-08T10:01:06.675Z,958.97
2016-08-08T10:02:06.707Z,958.96
2016-08-08T10:03:06.742Z,958.97
2016-08-08T10:04:06.771Z,958.93
2016-08-08T10:05:06.854Z,958.94
2016-08-08T10:06:06.852Z,958.9
2016-08-08T10:07:06.865Z,958.92
2016-08-08T10:08:06.896Z,958.91
2016-08-08T10:09:06.928Z,958.88
2016-08-08T10:10:06.961Z,958.92
2016-08-08T10:11:06.994Z,958.89
2016-08-08T10:12:07.024Z,958.93
2016-08-08T10:13:07.056Z,958.9
2016-08-08T10:14:07.088Z,958.91
2016-08-08T10:15:07.120Z,958.91
2016-08-08T10:16:07.153Z,958.95
2016-08-08T10:17:07.184Z,958.89
2016-08-08T10:18:07.218Z,958.9
2016-08-08T10:19:07.250Z,958.83
2016-08-08T10:20:07.280Z,958.81
2016-08-08T10:21:07.315Z,958.82
2016-08-08T10:22:07.347Z,958.84
2016-08-08T10:23:07.377Z,958.83
2016-08-08T10:24:07.413Z,958.79
2016-08-08T10:25:07.442Z,958.81
2016-08-08T10:26:07.476Z,958.79
2016-08-08T10:27:07.506Z,958.75
2016-08-08T10:28:07.538Z,958.82
2016-08-08T10:29:07.571Z,958.82
2016-08-08T10:30:07.602Z,958.82
2016-08-08T10:31:07.655Z,958.78
2016-08-08T10:32:07.668Z,958.77
2016-08-08T10:33:07.702Z,958.75
2016-08-08T10:34:07.732Z,958.74
2016-08-08T10:35:07.770Z,958.73
2016-08-08T10:36:07.797Z,958.77
2016-08-08T10:37:07.830Z,958.73
2016-08-08T10:38:07.863Z,958.73
2016-08-08T10:39:07.896Z,958.73
2016-08-08T10:40:07.928Z,958.68
2016-08-08T10:41:07.959Z,958.7
2016-08-08T10:42:07.992Z,958.67
2016-08-08T10:43:08.024Z,958.7
2016-08-08T10:44:08.057Z,958.67
2016-08-08T10:45:08.089Z,958.69
2016-08-08T10:46:08.122Z,958.7
2016-08-08T10:47:08.156Z,958.67
2016-08-08T10:48:08.187Z,958.72
2016-08-08T10:49:08.218Z,958.67
2016-08-08T10:50:08.251Z,958.62
2016-08-08T10:51:08.284Z,958.6
2016-08-08T10:52:08.315Z,958.6
2016-08-08T10:53:08.349Z,958.59
2016-08-08T10:54:08.382Z,958.62
2016-08-08T10:55:08.414Z,958.59
2016-08-08T10:56:08.458Z,958.62
2016-08-08T10:57:08.478Z,958.63
2016-08-08T10:58:08.512Z,958.58
2016-08-08T10:59:08.544Z,958.6
2016-08-08T11:00:08.575Z,958.63
2016-08-08T11:01:08.608Z,958.59
2016-08-08T11:02:08.647Z,958.55
2016-08-08T11:03:08.672Z,958.56
2016-08-08T11:04:08.706Z,958.53
2016-08-08T11:05:08.788Z,958.53
2016-08-08T11:06:08.771Z,958.54
2016-08-08T11:07:08.803Z,958.54
2016-08-08T11:08:08.835Z,958.47
2016-08-08T11:09:08.868Z,958.56
2016-08-08T11:10:08.903Z,958.39
2016-08-08T11:11:08.933Z,958.51
2016-08-08T11:12:08.969Z,958.52
2016-08-08T11:13:08.999Z,958.54
2016-08-08T11:14:09.031Z,958.53
2016-08-08T11:15:09.063Z,958.53
2016-08-08T11:16:09.095Z,958.51
2016-08-08T11:17:09.132Z,958.49
2016-08-08T11:18:09.161Z,958.51
2016-08-08T11:19:09.194Z,958.47
2016-08-08T11:20:09.225Z,958.47
2016-08-08T11:21:09.261Z,958.49
2016-08-08T11:22:09.291Z,958.47
2016-08-08T11:23:09.323Z,958.51
2016-08-08T11:24:09.357Z,958.49
2016-08-08T11:25:09.388Z,958.51
2016-08-08T11:26:09.422Z,958.49
2016-08-08T11:27:09.456Z,958.5
2016-08-08T11:28:09.486Z,958.45
2016-08-08T11:29:09.541Z,958.45
2016-08-08T11:30:09.552Z,958.46
2016-08-08T11:31:09.600Z,958.47
2016-08-08T11:32:09.617Z,958.51
2016-08-08T11:33:09.661Z,958.48
2016-08-08T11:34:09.684Z,958.45
2016-08-08T11:35:09.715Z,958.45
2016-08-08T11:36:09.748Z,958.43
2016-08-08T11:37:09.781Z,958.48
2016-08-08T11:38:09.814Z,958.45
2016-08-08T11:39:09.849Z,958.44
2016-08-08T11:40:09.880Z,958.44
2016-08-08T11:41:09.912Z,958.42
2016-08-08T11:42:09.948Z,958.39
2016-08-08T11:43:09.979Z,958.42
2016-08-08T11:44:10.023Z,958.38
2016-08-08T11:45:10.108Z,958.4
2016-08-08T11:46:10.092Z,958.36
2016-08-08T11:47:10.161Z,958.37
2016-08-08T11:48:10.143Z,958.34
2016-08-08T11:49:10.177Z,958.33
2016-08-08T11:50:10.211Z,958.32
2016-08-08T11:51:10.240Z,958.32
2016-08-08T11:52:10.274Z,958.27
2016-08-08T11:53:10.309Z,958.3
2016-08-08T11:54:10.343Z,958.28
2016-08-08T11:55:10.373Z,958.27
2016-08-08T11:56:10.407Z,958.3
2016-08-08T11:57:10.439Z,958.38
2016-08-08T11:58:10.471Z,958.34
2016-08-08T11:59:10.505Z,958.3
2016-08-08T12:00:10.538Z,958.3
2016-08-08T12:01:10.571Z,958.3
2016-08-08T12:02:10.604Z,958.32
2016-08-08T12:03:10.654Z,958.24
2016-08-08T12:04:10.670Z,958.29
2016-08-08T12:05:10.702Z,958.27
2016-08-08T12:06:10.736Z,958.28
2016-08-08T12:07:10.767Z,958.26
2016-08-08T12:08:10.803Z,958.22
2016-08-08T12:09:10.835Z,958.19
2016-08-08T12:10:10.868Z,958.24
2016-08-08T12:11:10.900Z,958.14
2016-08-08T12:12:10.935Z,958.15
2016-08-08T12:13:10.967Z,958.11
2016-08-08T12:14:11.000Z,958.11
2016-08-08T12:15:11.084Z,958.12
2016-08-08T12:16:11.066Z,958.06
2016-08-08T12:17:11.098Z,958.08
2016-08-08T12:18:11.132Z,958.04
2016-08-08T12:19:11.165Z,958.12
2016-08-08T12:20:11.252Z,958.08
2016-08-08T12:21:11.231Z,958.06
2016-08-08T12:22:11.265Z,958.09
2016-08-08T12:23:11.297Z,958.05
2016-08-08T12:24:11.329Z,958.07
2016-08-08T12:25:11.364Z,958.02
2016-08-08T12:26:11.398Z,958.01
2016-08-08T12:27:11.429Z,958.01
2016-08-08T12:28:11.464Z,957.96
2016-08-08T12:29:11.496Z,957.91
2016-08-08T12:30:11.531Z,957.92
2016-08-08T12:31:11.562Z,957.94
2016-08-08T12:32:11.596Z,957.95
2016-08-08T12:33:11.628Z,957.95
2016-08-08T12:34:11.662Z,957.95
2016-08-08T12:35:11.696Z,957.91
2016-08-08T12:36:11.731Z,957.9
2016-08-08T12:37:11.761Z,957.93
2016-08-08T12:38:11.795Z,957.92
2016-08-08T12:39:11.828Z,957.94
2016-08-08T12:40:11.861Z,957.89